Time;durP1;ratioP1;P1;durP2;ratioP2;P2;SDS_P1;SDS_P2;PMS_P1;PMS_P2;Temp;Humidity;BMP_temperature;BMP_pressure;BME280_temperature;BME280_humidity;BME280_pressure;Samples;Min_cycle;Max_cycle;Signal;HPM_P1;HPM_P2
2023/04/16 00:00:47;;;;;;;3.40;1.80;;;;;;;13.19;53.14;99232.91;4489088;31;33872;-63
2023/04/16 00:03:15;;;;;;;2.97;1.95;;;;;;;13.07;53.67;99229.56;4487936;31;34104;-63
2023/04/16 00:05:43;;;;;;;2.12;1.92;;;;;;;12.98;54.24;99225.88;4488610;31;32647;-63
2023/04/16 00:08:10;;;;;;;1.40;1.25;;;;;;;12.92;54.41;99233.66;4491073;31;33135;-63
2023/04/16 00:10:38;;;;;;;2.10;1.37;;;;;;;13.13;53.73;99223.59;4494355;31;34815;-63
2023/04/16 00:13:05;;;;;;;1.70;1.60;;;;;;;13.17;53.60;99224.16;4485285;31;33926;-63
2023/04/16 00:15:32;;;;;;;5.82;1.45;;;;;;;13.18;53.64;99223.16;4494919;31;34951;-63
2023/04/16 00:18:00;;;;;;;2.78;1.75;;;;;;;13.15;53.64;99224.28;4493350;31;34407;-63
2023/04/16 00:20:28;;;;;;;2.67;2.12;;;;;;;13.18;53.58;99221.31;4492674;31;33462;-62
2023/04/16 00:22:55;;;;;;;2.87;2.15;;;;;;;13.09;53.46;99226.72;4483574;31;35457;-64
2023/04/16 00:25:23;;;;;;;4.20;1.37;;;;;;;13.20;52.85;99224.72;4481440;31;34725;-64
2023/04/16 00:27:50;;;;;;;3.40;1.75;;;;;;;13.18;52.93;99226.69;4489398;31;32155;-63
2023/04/16 00:30:18;;;;;;;3.17;2.05;;;;;;;13.12;52.77;99223.75;4489572;31;35030;-63
2023/04/16 00:32:46;;;;;;;2.72;1.70;;;;;;;13.09;52.73;99226.72;4489145;31;36887;-64
2023/04/16 00:35:13;;;;;;;2.28;1.70;;;;;;;12.97;52.97;99223.31;4484421;31;34135;-63
2023/04/16 00:37:41;;;;;;;2.53;1.73;;;;;;;13.03;52.84;99228.12;4486757;31;32682;-64
2023/04/16 00:40:09;;;;;;;1.12;1.02;;;;;;;12.98;53.14;99228.56;4495488;31;33621;-64
2023/04/16 00:42:37;;;;;;;2.70;1.48;;;;;;;12.99;53.12;99230.25;4495193;31;33740;-63
2023/04/16 00:45:05;;;;;;;1.95;1.45;;;;;;;12.99;52.95;99230.25;4491001;31;33767;-62
2023/04/16 00:47:33;;;;;;;2.67;2.08;;;;;;;12.92;53.01;99230.97;4494071;31;33443;-63
2023/04/16 00:50:03;;;;;;;2.17;1.60;;;;;;;12.77;53.22;99239.44;4490879;31;34590;-62
2023/04/16 00:52:31;;;;;;;3.08;1.50;;;;;;;12.73;53.41;99232.66;4487306;31;32623;-62
2023/04/16 00:54:59;;;;;;;2.35;1.25;;;;;;;12.72;53.33;99230.13;4489378;31;34090;-62
2023/04/16 00:57:27;;;;;;;4.53;2.37;;;;;;;12.75;52.96;99224.47;4495619;31;33357;-63
2023/04/16 00:59:55;;;;;;;3.92;2.75;;;;;;;12.47;53.14;99234.19;4495475;31;33848;-62
2023/04/16 01:02:23;;;;;;;7.87;2.92;;;;;;;12.30;53.82;99241.94;4481240;31;32328;-62
2023/04/16 01:04:51;;;;;;;4.87;2.85;;;;;;;12.33;53.73;99238.13;4479879;31;34436;-63
2023/04/16 01:07:18;;;;;;;1.65;1.55;;;;;;;12.17;54.45;99233.31;4485801;31;33345;-62
2023/04/16 01:09:46;;;;;;;2.95;2.00;;;;;;;12.21;54.31;99237.41;4491147;31;33862;-62
2023/04/16 01:12:13;;;;;;;2.80;1.73;;;;;;;12.46;53.44;99241.41;4491831;31;34006;-61
2023/04/16 01:14:41;;;;;;;3.70;1.75;;;;;;;12.05;54.42;99248.66;4489535;31;33582;-61
2023/04/16 01:17:09;;;;;;;2.05;1.30;;;;;;;12.25;53.58;99236.13;4480496;31;32343;-62
2023/04/16 01:19:37;;;;;;;2.28;1.60;;;;;;;12.22;54.40;99235.56;4492176;31;34001;-63
2023/04/16 01:22:04;;;;;;;0.73;0.73;;;;;;;12.21;54.21;99237.41;4495508;31;33883;-63
2023/04/16 01:24:34;;;;;;;1.50;1.15;;;;;;;12.16;54.02;99238.78;4486982;31;33009;-63
2023/04/16 01:27:02;;;;;;;1.48;0.85;;;;;;;12.38;53.27;99230.50;4492281;31;34560;-62
2023/04/16 01:29:29;;;;;;;2.70;1.67;;;;;;;12.48;53.12;99243.94;4482488;31;32644;-62
2023/04/16 01:31:57;;;;;;;4.35;1.98;;;;;;;12.44;53.24;99243.38;4484747;31;34943;-62
2023/04/16 01:34:25;;;;;;;4.20;1.48;;;;;;;12.48;53.43;99246.63;4488722;31;33865;-62
2023/04/16 01:36:52;;;;;;;2.90;1.60;;;;;;;12.51;53.71;99240.97;4485512;31;33332;-61
2023/04/16 01:39:21;;;;;;;2.65;2.05;;;;;;;12.11;54.78;99236.53;4490371;31;35170;-62
2023/04/16 01:41:48;;;;;;;1.58;1.48;;;;;;;12.09;55.28;99241.16;4494102;31;35755;-62
2023/04/16 01:44:16;;;;;;;0.73;0.70;;;;;;;12.20;55.26;99241.06;4488747;31;33451;-62
2023/04/16 01:46:43;;;;;;;2.12;1.98;;;;;;;12.30;54.64;99231.22;4484751;31;34672;-63
2023/04/16 01:49:11;;;;;;;3.53;1.62;;;;;;;12.27;54.33;99231.47;4484129;31;32488;-63
2023/04/16 01:51:38;;;;;;;2.62;1.30;;;;;;;12.16;54.33;99244.16;4485833;31;33615;-63
2023/04/16 01:54:06;;;;;;;2.47;1.92;;;;;;;11.96;55.08;99246.78;4494122;31;34680;-62
2023/04/16 01:56:34;;;;;;;1.08;0.98;;;;;;;12.26;54.43;99235.16;4490045;31;32200;-62
2023/04/16 01:59:02;;;;;;;1.85;1.10;;;;;;;12.37;53.66;99246.75;4486704;31;34793;-63
2023/04/16 02:01:30;;;;;;;0.80;0.80;;;;;;;12.10;54.25;99249.09;4488807;31;33816;-63
2023/04/16 02:03:58;;;;;;;2.00;1.55;;;;;;;12.28;53.85;99253.78;4495685;31;33615;-62
2023/04/16 02:06:26;;;;;;;1.33;1.23;;;;;;;12.35;53.61;99242.34;4491161;31;31682;-63
2023/04/16 02:08:54;;;;;;;1.17;0.98;;;;;;;12.41;53.26;99245.50;4492106;31;34936;-63
2023/04/16 02:11:22;;;;;;;1.37;1.15;;;;;;;12.39;53.15;99242.09;4491291;31;34903;-63
2023/04/16 02:13:50;;;;;;;3.87;1.98;;;;;;;12.35;53.51;99245.03;4486993;31;33981;-62
2023/04/16 02:16:17;;;;;;;2.87;1.90;;;;;;;12.40;53.29;99250.00;4492003;31;34276;-62
2023/04/16 02:18:46;;;;;;;4.60;2.08;;;;;;;12.33;53.40;99252.41;4489031;31;34737;-63
2023/04/16 02:21:14;;;;;;;2.28;1.35;;;;;;;12.07;53.64;99256.53;4486980;31;33966;-65
2023/04/16 02:23:44;;;;;;;5.82;2.35;;;;;;;12.22;53.14;99257.03;4486345;31;33927;-63
2023/04/16 02:26:12;;;;;;;2.17;1.62;;;;;;;12.21;53.21;99264.22;4484612;31;32305;-64
2023/04/16 02:28:40;;;;;;;1.15;1.05;;;;;;;12.21;53.04;99253.50;4492608;31;33589;-65
2023/04/16 02:31:08;;;;;;;2.70;1.87;;;;;;;12.10;53.32;99264.31;4492111;31;35355;-63
2023/04/16 02:33:37;;;;;;;1.55;1.45;;;;;;;11.96;53.68;99267.38;4490493;31;33471;-64
2023/04/16 02:36:05;;;;;;;1.83;1.55;;;;;;;11.96;54.03;99260.19;4494909;31;34539;-65
2023/04/16 02:38:32;;;;;;;1.15;1.05;;;;;;;12.05;53.70;99270.09;4495241;31;34196;-65
2023/04/16 02:41:00;;;;;;;1.87;1.50;;;;;;;12.01;53.63;99265.16;4485257;31;33590;-65
2023/04/16 02:43:28;;;;;;;1.55;1.45;;;;;;;11.51;55.05;99263.19;4488140;31;33809;-63
2023/04/16 02:45:55;;;;;;;2.53;2.28;;;;;;;11.68;54.59;99260.88;4494643;31;34815;-63
2023/04/16 02:48:22;;;;;;;1.40;1.30;;;;;;;11.57;55.38;99272.53;4496144;31;33318;-63
2023/04/16 02:50:50;;;;;;;1.25;1.05;;;;;;;11.82;54.93;99258.69;4491310;31;35192;-63
2023/04/16 02:53:17;;;;;;;2.83;2.15;;;;;;;11.66;55.03;99266.38;4483800;31;33851;-64
2023/04/16 02:55:52;;;;;;;2.50;1.87;;;;;;;11.66;55.30;99266.38;4493466;31;34572;-62
2023/04/16 02:58:21;;;;;;;4.10;2.45;;;;;;;11.60;55.94;99264.22;4485571;31;34466;-63
2023/04/16 03:00:49;;;;;;;5.90;3.62;;;;;;;11.74;55.63;99266.53;4490471;31;33531;-65
2023/04/16 03:03:17;;;;;;;5.20;1.98;;;;;;;11.65;55.58;99276.25;4492194;31;33617;-64
2023/04/16 03:05:45;;;;;;;3.22;1.98;;;;;;;11.60;56.00;99275.78;4491206;31;33180;-64
2023/04/16 03:08:13;;;;;;;3.65;2.72;;;;;;;11.40;56.76;99269.47;4495470;31;33445;-63
2023/04/16 03:10:40;;;;;;;3.10;1.65;;;;;;;11.56;56.46;99278.88;4491990;31;33955;-63
2023/04/16 03:13:08;;;;;;;4.90;2.47;;;;;;;11.65;55.70;99273.56;4490557;31;34155;-63
2023/04/16 03:15:36;;;;;;;3.20;2.45;;;;;;;11.58;56.13;99276.91;4484168;31;33358;-66
2023/04/16 03:18:03;;;;;;;4.03;1.87;;;;;;;11.84;55.29;99271.94;4489429;31;34685;-66
2023/04/16 03:20:31;;;;;;;4.22;2.30;;;;;;;11.60;55.49;99267.75;4484368;31;34810;-64
2023/04/16 03:22:59;;;;;;;2.47;2.17;;;;;;;11.73;55.43;99264.00;4486105;31;33540;-63
2023/04/16 03:25:27;;;;;;;2.12;1.75;;;;;;;11.82;55.34;99272.09;4489886;31;34167;-64
2023/04/16 03:27:55;;;;;;;3.65;2.55;;;;;;;11.26;56.38;99277.81;4492772;31;35184;-63
2023/04/16 03:30:23;;;;;;;3.12;2.78;;;;;;;11.48;56.12;99281.34;4489839;31;32442;-64
2023/04/16 03:32:50;;;;;;;3.05;2.58;;;;;;;11.53;56.14;99295.22;4488424;31;34531;-63
2023/04/16 03:35:18;;;;;;;4.40;3.08;;;;;;;11.45;56.09;99297.69;4494603;31;33504;-63
2023/04/16 03:37:46;;;;;;;2.47;2.00;;;;;;;11.49;55.36;99299.97;4490021;31;32473;-66
2023/04/16 03:40:14;;;;;;;4.70;2.97;;;;;;;11.37;55.96;99306.41;4496429;31;35363;-62
2023/04/16 03:42:42;;;;;;;3.03;2.17;;;;;;;11.33;55.82;99304.94;4487408;31;33355;-61
2023/04/16 03:45:10;;;;;;;3.50;2.72;;;;;;;11.43;55.59;99314.78;4492764;31;33516;-62
2023/04/16 03:47:37;;;;;;;2.40;1.98;;;;;;;11.54;55.42;99310.31;4491365;31;33795;-62
2023/04/16 03:50:05;;;;;;;1.80;1.67;;;;;;;11.59;55.32;99316.16;4498197;31;35287;-63
2023/04/16 03:52:33;;;;;;;5.28;3.60;;;;;;;11.64;55.28;99321.94;4492379;31;33509;-62
2023/04/16 03:55:02;;;;;;;6.80;3.30;;;;;;;11.73;55.00;99331.03;4481782;31;33563;-62
2023/04/16 03:57:30;;;;;;;9.93;3.28;;;;;;;11.68;55.35;99331.41;4487683;31;34306;-61
2023/04/16 03:59:59;;;;;;;5.65;3.05;;;;;;;11.56;56.15;99332.50;4494497;31;35230;-64
2023/04/16 04:02:27;;;;;;;4.65;2.47;;;;;;;11.73;55.50;99325.66;4482476;31;34596;-62
2023/04/16 04:04:54;;;;;;;3.45;3.00;;;;;;;11.71;55.96;99330.31;4487778;31;33663;-62
2023/04/16 04:07:22;;;;;;;2.65;1.95;;;;;;;11.93;54.97;99326.66;4485898;31;33463;-62
2023/04/16 04:09:51;;;;;;;3.17;2.15;;;;;;;11.92;54.74;99324.97;4495365;31;32855;-65
2023/04/16 04:12:18;;;;;;;4.47;3.12;;;;;;;11.95;54.87;99330.06;4488409;31;32584;-63
2023/04/16 04:14:46;;;;;;;8.13;3.08;;;;;;;12.07;54.71;99321.78;4484920;31;35829;-63
2023/04/16 04:17:13;;;;;;;4.68;2.87;;;;;;;12.14;54.56;99322.09;4495153;31;33753;-62
2023/04/16 04:19:41;;;;;;;4.35;2.70;;;;;;;12.27;54.47;99321.88;4489504;31;32906;-62
2023/04/16 04:22:27;;;;;;;3.72;2.58;;;;;;;12.14;55.30;99323.94;4481111;31;34612;-62
2023/04/16 04:24:55;;;;;;;4.32;2.45;;;;;;;11.88;56.46;99327.91;4483764;31;32997;-62
2023/04/16 04:27:22;;;;;;;10.70;3.72;;;;;;;11.81;57.14;99336.56;4491884;31;33907;-62
2023/04/16 04:29:50;;;;;;;5.05;4.15;;;;;;;10.97;58.63;99355.25;4488630;31;34031;-61
2023/04/16 04:32:18;;;;;;;5.57;3.70;;;;;;;11.47;56.97;99349.34;4492749;31;33700;-61
2023/04/16 04:34:47;;;;;;;3.15;2.30;;;;;;;11.84;55.45;99350.59;4492180;31;33529;-62
2023/04/16 04:37:14;;;;;;;4.90;2.25;;;;;;;11.90;55.23;99343.84;4488082;31;34604;-62
2023/04/16 04:39:43;;;;;;;2.37;1.87;;;;;;;11.96;55.36;99355.91;4487336;31;34839;-61
2023/04/16 04:42:11;;;;;;;4.55;2.10;;;;;;;11.92;55.49;99351.78;4481282;31;33373;-63
2023/04/16 04:44:38;;;;;;;3.83;1.37;;;;;;;11.78;56.42;99351.13;4485362;31;32673;-62
2023/04/16 04:47:07;;;;;;;3.12;2.20;;;;;;;12.02;56.06;99345.47;4492011;31;35040;-62
2023/04/16 04:49:35;;;;;;;2.85;2.35;;;;;;;12.36;55.36;99353.25;4486567;31;34622;-64
2023/04/16 04:52:02;;;;;;;1.77;1.33;;;;;;;12.55;54.74;99353.31;4492164;31;33993;-63
2023/04/16 04:54:31;;;;;;;2.47;1.77;;;;;;;12.58;54.79;99353.06;4492932;31;33496;-64
2023/04/16 04:57:00;;;;;;;2.83;1.48;;;;;;;12.64;54.74;99351.63;4494603;31;33951;-62
2023/04/16 04:59:28;;;;;;;2.47;1.90;;;;;;;12.59;55.37;99353.91;4487221;31;33651;-63
2023/04/16 05:01:56;;;;;;;4.32;2.50;;;;;;;12.54;55.83;99358.81;4480620;31;33838;-62
2023/04/16 05:04:23;;;;;;;2.95;2.33;;;;;;;12.11;57.28;99357.25;4489050;31;34454;-64
2023/04/16 05:06:51;;;;;;;2.35;2.08;;;;;;;12.24;57.19;99354.34;4484391;31;33523;-62
2023/04/16 05:09:18;;;;;;;3.55;1.67;;;;;;;12.45;56.57;99356.94;4492512;31;34993;-62
2023/04/16 05:11:46;;;;;;;2.28;1.45;;;;;;;12.41;56.99;99355.53;4488122;31;33459;-63
2023/04/16 05:14:13;;;;;;;2.30;1.52;;;;;;;12.42;56.91;99354.53;4492597;31;33159;-64
2023/04/16 05:16:41;;;;;;;2.22;2.03;;;;;;;12.76;55.67;99361.28;4488430;31;34980;-62
2023/04/16 05:19:08;;;;;;;4.65;2.47;;;;;;;12.87;54.89;99359.47;4494767;31;33212;-62
2023/04/16 05:21:36;;;;;;;2.05;1.33;;;;;;;12.78;55.28;99364.69;4486819;31;35081;-62
2023/04/16 05:24:04;;;;;;;3.85;2.17;;;;;;;12.74;55.72;99368.63;4482618;31;33182;-62
2023/04/16 05:26:32;;;;;;;2.75;1.75;;;;;;;12.82;55.51;99368.78;4486807;31;34229;-62
2023/04/16 05:28:59;;;;;;;2.72;2.05;;;;;;;12.76;55.66;99377.41;4492155;31;34015;-62
2023/04/16 05:31:27;;;;;;;1.45;1.27;;;;;;;12.86;55.40;99369.34;4482736;31;35008;-64
2023/04/16 05:33:55;;;;;;;2.80;2.28;;;;;;;12.79;56.08;99378.97;4491578;31;33164;-62
2023/04/16 05:36:22;;;;;;;4.87;3.42;;;;;;;13.00;55.70;99374.34;4489160;31;33724;-63
2023/04/16 05:38:50;;;;;;;2.25;1.77;;;;;;;13.13;54.97;99375.87;4490465;31;34083;-63
2023/04/16 05:41:17;;;;;;;5.72;2.95;;;;;;;13.17;55.04;99380.88;4488181;31;34032;-64
2023/04/16 05:43:44;;;;;;;3.20;2.90;;;;;;;13.17;55.37;99374.66;4487289;31;34512;-64
2023/04/16 05:46:12;;;;;;;2.70;2.35;;;;;;;13.16;55.67;99373.81;4490236;31;34451;-63
2023/04/16 05:48:40;;;;;;;3.22;2.15;;;;;;;13.39;55.15;99371.72;4498020;31;33666;-64
2023/04/16 05:51:07;;;;;;;3.85;2.47;;;;;;;13.45;54.99;99370.28;4489227;31;32171;-62
2023/04/16 05:53:35;;;;;;;3.80;2.72;;;;;;;13.50;55.22;99370.72;4489505;31;33023;-63
2023/04/16 05:56:02;;;;;;;2.37;1.83;;;;;;;13.72;54.69;99375.78;4485820;31;33787;-63
2023/04/16 05:58:30;;;;;;;2.70;2.33;;;;;;;13.69;55.16;99375.22;4482204;31;32328;-62
2023/04/16 06:00:58;;;;;;;5.53;2.45;;;;;;;13.75;55.20;99374.66;4483032;31;33882;-63
2023/04/16 06:03:26;;;;;;;1.42;1.25;;;;;;;13.79;55.18;99383.28;4487312;31;33318;-62
2023/04/16 06:05:54;;;;;;;4.20;2.60;;;;;;;13.72;55.54;99389.22;4494320;31;33145;-63
2023/04/16 06:08:22;;;;;;;3.75;2.30;;;;;;;13.83;55.36;99387.38;4492773;31;34911;-62
2023/04/16 06:10:50;;;;;;;3.08;2.28;;;;;;;13.89;55.01;99393.03;4481354;31;33998;-64
2023/04/16 06:13:17;;;;;;;3.45;2.80;;;;;;;13.96;54.85;99399.53;4490833;31;33169;-63
2023/04/16 06:15:45;;;;;;;4.15;2.05;;;;;;;14.03;54.89;99385.47;4485349;31;33693;-62
2023/04/16 06:18:13;;;;;;;2.17;1.85;;;;;;;14.05;54.91;99396.97;4486503;31;34190;-63
2023/04/16 06:20:40;;;;;;;1.45;1.30;;;;;;;14.03;55.19;99394.44;4487695;31;33829;-63
2023/04/16 06:23:08;;;;;;;3.05;2.50;;;;;;;14.01;55.11;99401.78;4491145;31;32045;-62
2023/04/16 06:25:35;;;;;;;5.75;3.45;;;;;;;14.05;54.84;99400.50;4487730;31;32760;-62
2023/04/16 06:28:03;;;;;;;3.67;2.25;;;;;;;14.28;54.38;99398.28;4494205;31;35596;-63
2023/04/16 06:30:30;;;;;;;2.28;1.98;;;;;;;14.38;54.90;99392.88;4488140;31;33823;-63
2023/04/16 06:32:58;;;;;;;4.25;2.92;;;;;;;14.62;55.06;99398.63;4487761;31;32462;-63
2023/04/16 06:35:26;;;;;;;2.92;2.40;;;;;;;14.77;54.75;99398.16;4487795;31;34043;-64
2023/04/16 06:37:53;;;;;;;6.10;3.35;;;;;;;14.95;54.20;99398.19;4493592;31;34136;-63
2023/04/16 06:40:21;;;;;;;4.80;2.22;;;;;;;14.85;54.47;99396.38;4490517;31;34570;-64
2023/04/16 06:42:48;;;;;;;2.72;1.83;;;;;;;15.07;53.84;99394.28;4488789;31;32259;-63
2023/04/16 06:45:16;;;;;;;6.10;2.05;;;;;;;14.93;54.29;99395.66;4485709;31;33806;-64
2023/04/16 06:47:43;;;;;;;6.93;3.92;;;;;;;15.05;53.97;99397.09;4496682;31;33761;-65
2023/04/16 06:50:11;;;;;;;2.87;1.98;;;;;;;15.26;53.21;99393.28;4499966;31;34965;-64
2023/04/16 06:52:39;;;;;;;6.75;3.58;;;;;;;15.40;52.59;99394.59;4482883;31;32397;-63
2023/04/16 06:55:08;;;;;;;4.62;3.33;;;;;;;15.55;52.37;99391.22;4495097;31;34354;-64
2023/04/16 06:57:36;;;;;;;4.32;3.00;;;;;;;15.42;53.00;99387.22;4493492;31;33252;-64
2023/04/16 07:00:04;;;;;;;5.68;2.97;;;;;;;15.71;52.55;99387.00;4496378;31;34055;-62
2023/04/16 07:02:32;;;;;;;4.87;3.25;;;;;;;15.83;51.66;99391.13;4491651;31;34464;-63
2023/04/16 07:04:59;;;;;;;2.83;1.85;;;;;;;15.70;51.98;99386.16;4488029;31;33866;-62
2023/04/16 07:07:27;;;;;;;2.92;2.17;;;;;;;16.06;50.98;99386.06;4486650;31;33485;-62
2023/04/16 07:09:55;;;;;;;9.07;2.65;;;;;;;16.28;50.13;99387.41;4489657;31;34910;-62
2023/04/16 07:12:22;;;;;;;2.58;1.77;;;;;;;16.35;50.11;99388.44;4493199;31;33423;-63
2023/04/16 07:14:49;;;;;;;3.50;2.17;;;;;;;16.19;50.61;99386.50;4498806;31;33760;-62
2023/04/16 07:17:17;;;;;;;5.28;3.12;;;;;;;16.45;50.17;99389.16;4489222;31;33867;-63
2023/04/16 07:19:45;;;;;;;3.12;1.77;;;;;;;16.58;49.82;99393.28;4493779;31;35118;-63
2023/04/16 07:22:13;;;;;;;3.15;2.22;;;;;;;16.39;49.78;99388.97;4496593;31;34639;-63
2023/04/16 07:24:40;;;;;;;2.10;1.65;;;;;;;16.74;48.58;99388.78;4484772;31;33506;-63
2023/04/16 07:27:08;;;;;;;5.72;2.83;;;;;;;16.75;48.41;99392.38;4496569;31;33681;-63
2023/04/16 07:29:35;;;;;;;1.60;1.23;;;;;;;16.02;49.62;99396.34;4498863;31;33693;-63
2023/04/16 07:32:03;;;;;;;2.87;1.90;;;;;;;16.41;49.41;99389.66;4489039;31;33264;-63
2023/04/16 07:34:30;;;;;;;3.12;2.10;;;;;;;16.21;49.97;99389.88;4497626;31;33955;-62
2023/04/16 07:36:58;;;;;;;1.67;1.37;;;;;;;16.35;50.18;99393.84;4489942;31;32782;-63
2023/04/16 07:39:25;;;;;;;2.00;1.25;;;;;;;16.74;49.96;99402.31;4499035;31;33957;-61
2023/04/16 07:41:53;;;;;;;2.75;1.77;;;;;;;17.06;48.66;99395.34;4491549;31;34393;-60
2023/04/16 07:44:20;;;;;;;4.07;2.47;;;;;;;16.96;49.61;99392.78;4492027;31;34828;-60
2023/04/16 07:46:48;;;;;;;3.85;2.08;;;;;;;17.20;48.65;99386.59;4492744;31;33752;-61
2023/04/16 07:49:15;;;;;;;2.40;1.50;;;;;;;16.77;49.69;99390.34;4485756;31;33817;-60
2023/04/16 07:51:43;;;;;;;2.60;1.67;;;;;;;16.28;49.49;99396.34;4484052;31;33411;-60
2023/04/16 07:54:10;;;;;;;2.42;1.37;;;;;;;16.00;49.91;99401.03;4491678;31;33821;-62
2023/04/16 07:56:38;;;;;;;2.75;1.58;;;;;;;16.11;50.52;99394.53;4497828;31;33815;-63
2023/04/16 07:59:05;;;;;;;4.20;1.95;;;;;;;16.74;48.99;99398.75;4486572;31;33506;-64
2023/04/16 08:01:51;;;;;;;3.20;2.20;;;;;;;16.65;48.82;99397.03;4489552;31;32786;-61
2023/04/16 08:04:23;;;;;;;3.05;1.65;;;;;;;16.82;48.43;99396.12;4489923;31;33828;-61
2023/04/16 08:06:52;;;;;;;2.15;1.83;;;;;;;15.83;50.93;99404.63;4495919;31;35065;-61
2023/04/16 08:09:21;;;;;;;2.37;1.77;;;;;;;16.45;49.73;99401.81;4486175;31;34840;-61
2023/04/16 08:11:49;;;;;;;2.20;1.42;;;;;;;16.09;50.73;99396.56;4497196;31;33338;-63
2023/04/16 08:14:17;;;;;;;2.17;1.55;;;;;;;16.80;49.12;99406.25;4486643;31;33703;-64
2023/04/16 08:16:44;;;;;;;7.43;1.58;;;;;;;17.14;48.96;99400.78;4492687;31;34004;-63
2023/04/16 08:19:12;;;;;;;3.08;1.60;;;;;;;17.36;47.99;99406.56;4492583;31;33878;-62
2023/04/16 08:21:39;;;;;;;4.60;1.83;;;;;;;17.17;48.74;99415.81;4494060;31;34131;-61
2023/04/16 08:24:07;;;;;;;5.93;2.45;;;;;;;16.75;48.81;99408.59;4483170;31;34767;-61
2023/04/16 08:26:35;;;;;;;2.70;1.62;;;;;;;16.81;48.42;99399.81;4489392;31;32702;-61
2023/04/16 08:29:02;;;;;;;2.10;1.42;;;;;;;16.95;47.67;99403.75;4490158;31;34216;-60
2023/04/16 08:31:30;;;;;;;1.92;1.20;;;;;;;16.62;48.46;99413.56;4490797;31;33888;-62
2023/04/16 08:33:59;;;;;;;2.30;1.50;;;;;;;16.82;47.47;99408.78;4490682;31;33747;-64
2023/04/16 08:36:26;;;;;;;2.47;1.70;;;;;;;16.70;47.47;99416.31;4485643;31;35268;-62
2023/04/16 08:38:54;;;;;;;3.37;1.52;;;;;;;16.60;48.31;99421.00;4483939;31;32807;-63
2023/04/16 08:41:23;;;;;;;2.85;2.00;;;;;;;16.40;49.04;99420.34;4491213;31;32309;-60
2023/04/16 08:43:51;;;;;;;2.35;1.52;;;;;;;16.39;49.15;99418.66;4494907;31;33787;-60
2023/04/16 08:46:21;;;;;;;3.17;2.05;;;;;;;17.10;46.76;99418.34;4482231;31;34106;-62
2023/04/16 08:48:55;;;;;;;5.20;1.73;;;;;;;16.92;46.93;99414.91;4485793;31;33711;-60
2023/04/16 08:51:23;;;;;;;2.10;1.52;;;;;;;16.76;47.50;99426.50;4483887;31;34230;-60
2023/04/16 08:53:59;;;;;;;3.83;1.75;;;;;;;16.84;47.40;99425.69;4482631;31;33971;-60
2023/04/16 08:56:27;;;;;;;2.08;1.30;;;;;;;16.86;47.93;99429.09;4495238;31;33830;-62
2023/04/16 08:58:54;;;;;;;3.03;1.75;;;;;;;17.12;46.74;99424.44;4495242;31;33927;-62
2023/04/16 09:01:23;;;;;;;2.08;1.40;;;;;;;17.44;46.47;99422.81;4491572;31;33353;-62
2023/04/16 09:03:51;;;;;;;2.40;1.35;;;;;;;17.19;46.34;99430.03;4492144;31;33525;-61
2023/04/16 09:06:19;;;;;;;2.10;1.15;;;;;;;17.04;46.96;99429.81;4481351;31;32638;-63
2023/04/16 09:08:47;;;;;;;1.77;1.17;;;;;;;17.58;45.31;99434.84;4492629;31;33458;-63
2023/04/16 09:11:16;;;;;;;2.42;1.15;;;;;;;17.87;44.87;99437.94;4492535;31;33136;-63
2023/04/16 09:13:45;;;;;;;1.95;0.98;;;;;;;17.33;44.32;99444.78;4486057;31;32582;-62
2023/04/16 09:16:14;;;;;;;1.40;1.08;;;;;;;17.80;43.87;99442.34;4489951;31;34119;-62
2023/04/16 09:18:41;;;;;;;2.25;1.30;;;;;;;18.07;43.95;99443.88;4498521;31;34624;-63
2023/04/16 09:21:10;;;;;;;1.40;1.12;;;;;;;17.91;43.46;99444.72;4498028;31;31946;-62
2023/04/16 09:23:37;;;;;;;4.28;1.55;;;;;;;17.17;44.15;99454.56;4492416;31;33995;-62
2023/04/16 09:26:05;;;;;;;2.78;1.45;;;;;;;17.02;44.05;99444.53;4495376;31;35867;-61
2023/04/16 09:28:39;;;;;;;0.98;0.82;;;;;;;17.32;44.88;99453.91;4495052;31;33448;-61
2023/04/16 09:31:08;;;;;;;1.75;1.30;;;;;;;17.03;42.57;99454.31;4487128;31;32880;-61
2023/04/16 09:33:35;;;;;;;2.08;1.40;;;;;;;17.15;42.84;99453.00;4486531;31;34045;-61
2023/04/16 09:36:03;;;;;;;3.03;1.75;;;;;;;16.14;44.63;99466.25;4493052;31;31728;-61
2023/04/16 09:38:47;;;;;;;2.37;1.87;;;;;;;16.50;44.61;99456.19;4489044;31;33880;-61
2023/04/16 09:41:15;;;;;;;1.17;0.88;;;;;;;15.96;46.62;99463.59;4491279;31;33299;-61
2023/04/16 09:43:57;;;;;;;3.60;1.25;;;;;;;15.73;46.75;99461.38;4491576;31;33863;-61
2023/04/16 09:46:34;;;;;;;4.22;1.87;;;;;;;16.01;46.59;99466.66;4484546;31;33924;-60
2023/04/16 09:49:08;;;;;;;3.28;1.77;;;;;;;14.86;48.82;99464.59;4487312;31;33810;-62
2023/04/16 09:51:39;;;;;;;2.08;1.48;;;;;;;15.08;49.25;99466.87;4490004;31;33468;-63
2023/04/16 09:54:07;;;;;;;2.30;1.67;;;;;;;15.17;49.11;99464.28;4497298;31;33296;-65
2023/04/16 09:56:45;;;;;;;3.22;1.62;;;;;;;15.25;49.51;99465.25;4491873;31;33959;-64
2023/04/16 09:59:20;;;;;;;2.00;1.35;;;;;;;15.68;49.10;99466.38;4479291;31;34630;-63
2023/04/16 10:01:48;;;;;;;2.43;1.27;;;;;;;15.69;48.28;99459.13;4484820;31;32983;-63
2023/04/16 10:04:16;;;;;;;1.17;0.80;;;;;;;15.70;48.60;99460.84;4489698;31;34548;-65
2023/04/16 10:06:47;;;;;;;1.55;1.10;;;;;;;15.60;49.31;99455.47;4490803;31;33752;-64
2023/04/16 10:09:15;;;;;;;2.28;1.20;;;;;;;15.92;49.19;99454.97;4482189;31;34551;-61
2023/04/16 10:11:42;;;;;;;1.33;1.10;;;;;;;16.25;47.92;99457.91;4489694;31;33212;-61
2023/04/16 10:14:10;;;;;;;1.37;1.12;;;;;;;15.70;49.01;99452.75;4486277;31;34766;-61
2023/04/16 10:16:39;;;;;;;2.33;1.70;;;;;;;15.41;49.46;99453.78;4484487;31;34049;-61
2023/04/16 10:19:07;;;;;;;2.47;1.55;;;;;;;16.06;49.04;99445.47;4483565;31;35005;-61
2023/04/16 10:21:35;;;;;;;2.58;1.67;;;;;;;15.87;49.15;99456.44;4480988;31;32168;-61
2023/04/16 10:24:03;;;;;;;2.65;2.00;;;;;;;15.26;50.77;99455.31;4480545;31;35780;-61
2023/04/16 10:26:32;;;;;;;1.00;0.93;;;;;;;15.70;49.96;99448.19;4483209;31;35345;-60
2023/04/16 10:28:59;;;;;;;2.17;1.33;;;;;;;15.94;47.77;99434.06;4497704;31;34745;-62
2023/04/16 10:31:27;;;;;;;2.75;1.40;;;;;;;15.99;48.86;99439.84;4484493;31;33318;-61
2023/04/16 10:33:55;;;;;;;2.10;1.25;;;;;;;15.45;48.79;99444.37;4487005;31;33369;-63
2023/04/16 10:36:25;;;;;;;1.73;1.25;;;;;;;15.63;49.46;99440.81;4484440;31;34031;-60
2023/04/16 10:38:58;;;;;;;1.67;1.20;;;;;;;15.81;49.02;99436.31;4483897;31;32650;-62
2023/04/16 10:41:26;;;;;;;2.78;1.65;;;;;;;15.73;48.24;99437.09;4488508;31;33595;-61
2023/04/16 10:44:11;;;;;;;3.50;1.40;;;;;;;16.06;48.29;99438.22;4492212;31;33440;-62
2023/04/16 10:46:40;;;;;;;2.08;1.25;;;;;;;16.61;46.87;99433.50;4492133;31;33800;-63
2023/04/16 10:49:18;;;;;;;1.10;0.95;;;;;;;16.27;46.72;99435.13;4492473;31;34126;-62
2023/04/16 10:51:53;;;;;;;0.75;0.68;;;;;;;16.23;46.90;99431.06;4489859;31;33487;-62
2023/04/16 10:54:23;;;;;;;1.05;0.88;;;;;;;16.21;45.88;99429.50;4492931;31;33916;-63
2023/04/16 10:56:51;;;;;;;1.08;0.68;;;;;;;16.67;44.77;99425.59;4488109;31;33685;-61
2023/04/16 10:59:20;;;;;;;2.37;1.25;;;;;;;17.43;44.59;99411.16;4494030;31;33757;-62
2023/04/16 11:01:55;;;;;;;1.45;0.77;;;;;;;17.30;43.69;99415.34;4495822;31;33338;-61
2023/04/16 11:04:22;;;;;;;1.45;1.08;;;;;;;17.34;43.14;99412.16;4492669;31;34960;-62
2023/04/16 11:06:59;;;;;;;1.70;0.70;;;;;;;17.10;44.51;99404.81;4491544;31;33902;-61
2023/04/16 11:09:45;;;;;;;0.98;0.75;;;;;;;17.25;43.80;99410.44;4488964;31;34258;-61
2023/04/16 11:12:15;;;;;;;2.03;1.02;;;;;;;17.11;43.26;99411.06;4487987;31;33318;-61
2023/04/16 11:14:47;;;;;;;1.65;0.57;;;;;;;17.44;40.99;99409.31;4492480;31;35050;-61
2023/04/16 11:17:14;;;;;;;0.55;0.50;;;;;;;17.75;41.63;99412.19;4490515;31;33955;-61
2023/04/16 11:19:42;;;;;;;1.33;1.17;;;;;;;17.40;41.97;99407.94;4495009;31;32688;-60
2023/04/16 11:22:16;;;;;;;1.02;0.50;;;;;;;17.60;42.01;99406.59;4485017;31;32258;-61
2023/04/16 11:24:45;;;;;;;0.62;0.62;;;;;;;18.06;41.22;99408.81;4496341;31;34746;-61
2023/04/16 11:27:14;;;;;;;1.23;0.80;;;;;;;17.25;42.68;99410.44;4487974;31;34219;-61
2023/04/16 11:29:41;;;;;;;3.12;1.05;;;;;;;17.12;43.05;99410.91;4490552;31;34233;-62
2023/04/16 11:32:20;;;;;;;3.97;1.48;;;;;;;17.44;42.46;99410.12;4485484;31;32289;-62
2023/04/16 11:34:47;;;;;;;1.75;0.95;;;;;;;17.80;41.09;99412.56;4485587;31;33826;-61
2023/04/16 11:37:19;;;;;;;0.73;0.62;;;;;;;17.23;42.58;99410.59;4491582;31;33409;-61
2023/04/16 11:39:50;;;;;;;1.27;1.12;;;;;;;17.75;41.95;99412.19;4493514;31;32788;-63